Flight Track Log - Related Links

Times and Time Zones

All times are in EDT time to prevent confusion due to time zone crossing. See the SWA3 flight status page for this flight to view local times or setup timezone preferences in your user account.

Time Position Orientation Groundspeed Altitude Reporting Facility
EDT Latitude Longitude Course Direction KTS MPH feet Rate Location/Type
Sun 08:40:46 AM 32.8333 -96.8333 140° Southeast 153 176 1,300  Level Dallas / Fort Worth TRACON
Sun 08:41:34 AM 32.8000 -96.8000 140° Southeast 219 252 3,000 2,316 Climbing Dallas / Fort Worth TRACON
Sun 08:42:40 AM 32.7500 -96.8000 180° South 242 278 5,700 2,352 Climbing Dallas / Fort Worth TRACON
Sun 08:44:53 AM 32.5794 -96.8539 195° South 294 338 10,800 2,580 Climbing Fort Worth Center
Sun 08:45:53 AM 32.4772 -96.8814 193° South 346 398 14,000 2,600 Climbing Fort Worth Center
Sun 08:46:53 AM 32.3836 -96.9092 194° South 372 428 16,000 2,350 Climbing Fort Worth Center
Sun 08:47:53 AM 32.2731 -96.9367 192° South 372 428 18,700 2,300 Climbing Fort Worth Center
Sun 08:48:53 AM 32.1603 -96.9200 173° South 382 440 20,600 1,989 Climbing Fort Worth Center
Sun 08:50:51 AM 31.9478 -96.8797 171° South 412 474 24,600 1,810 Climbing Houston Center
Sun 08:51:52 AM 31.8297 -96.8594 172° South 422 486 26,000 1,525 Climbing Houston Center
Sun 08:52:53 AM 31.7069 -96.8386 172° South 436 502 27,700 1,475 Climbing Houston Center
Sun 08:53:54 AM 31.5822 -96.8181 172° South 444 511 29,000 1,415 Climbing Houston Center
Sun 08:54:56 AM 31.4572 -96.7981 172° South 448 516 30,600 1,610 Climbing Houston Center
Sun 08:55:57 AM 31.3336 -96.8017 181° South 450 518 32,300 1,180 Climbing Houston Center
Sun 08:56:58 AM 31.2119 -96.8192 187° South 436 502 33,000 -541 Climbing Houston Center
Sun 08:57:59 AM 31.0825 -96.8361 186° South 456 525 31,200 -2,066 Descending Houston Center
Sun 08:59:00 AM 30.9531 -96.8558 187° South 460 529 28,800 -2,683 Descending Houston Center
Sun 09:00:02 AM 30.8411 -96.8011 157° South 460 529 25,700 -2,098 Descending Houston Center
Sun 09:01:03 AM 30.7472 -96.7131 141° Southeast 432 497 24,500 -1,574 Descending Houston Center
Sun 09:02:04 AM 30.6614 -96.6336 141° Southeast 396 456 22,500 -2,066 Descending Houston Center
Sun 09:03:05 AM 30.5758 -96.5514 140° Southeast 393 452 20,300 -2,066 Descending Houston Center
Sun 09:04:06 AM 30.4908 -96.4731 142° Southeast 386 444 18,300 -2,000 Descending Houston Center
Sun 09:05:08 AM 30.4083 -96.3953 141° Southeast 377 434 16,200 -2,227 Descending Houston Center
Sun 09:05:43 AM 30.3517 -96.3442 142° Southeast 371 427 14,700 -2,200 Descending Houston Center
Sun 09:07:08 AM 30.2400 -96.2406 141° Southeast 349 402 11,800 -1,500 Descending Houston Center
Sun 09:08:11 AM 30.1597 -96.1811 147° Southeast 327 376 11,000 -362 Descending Houston Center
Sun 09:09:04 AM 30.0894 -96.1464 157° South 318 366 11,100 -105 Climbing Houston Center
Sun 09:10:05 AM 30.0100 -96.1022 154° Southeast 314 361 10,800 -885 Descending Houston Center
Sun 09:11:06 AM 29.9353 -96.0625 155° Southeast 284 327 9,300 -1,438 Descending Houston Center
Sun 09:12:06 AM 29.9036 -95.9867 116° Southeast 282 325 7,900 -1,420 Descending Houston Center
Sun 09:13:17 AM 29.8869 -95.8936 102° East 282 325 6,200 -934 Descending Houston Center
Sun 09:14:08 AM 29.8708 -95.8050 102° East 282 325 6,000 -911 Descending Houston Center
Sun 09:15:09 AM 29.8531 -95.7203 104° East 276 318 4,500 -1,377 Descending Houston Center
Sun 09:16:10 AM 29.8372 -95.6381 102° East 264 304 3,200 -738 Descending Houston Center
Sun 09:17:11 AM 29.8242 -95.5625 101° East 228 262 3,000 -49 Descending Houston Center
Sun 09:18:12 AM 29.8092 -95.4894 103° East 222 255 3,100 49 Climbing Houston Center
Sun 09:19:13 AM 29.7747 -95.4336 125° Southeast 213 245 3,100 -269 Level Houston Center
Sun 09:20:26 AM 29.7333 -95.3839 134° Southeast 200 230 2,500 -744 Descending Houston Center
Sun 09:21:14 AM 29.7017 -95.3483 136° Southeast 179 206 1,600 -936 Descending Houston Center
Sun 09:22:15 AM 29.6733 -95.3133 133° Southeast 132 152 800 -618 Descending Houston Center
Sun 09:23:30 AM 29.6436 -95.2778 134° Southeast 147 169 200 -480 Descending Houston Center
Sun 09:25:00 AM 29.6454 -95.2789 115° Southeast  Level Estimated

Login

Don't have an account? Register now (free) for customized features, flight alerts, and more!